createdAt,value
2018-12-18T00:00:00.930Z,42.62
2018-12-18T00:02:29.191Z,50.35
2018-12-18T00:04:57.369Z,39.20
2018-12-18T00:07:25.550Z,41.40
2018-12-18T00:09:54.295Z,38.15
2018-12-18T00:12:22.473Z,41.20
2018-12-18T00:14:50.664Z,40.92
2018-12-18T00:17:18.836Z,39.38
2018-12-18T00:19:47.013Z,40.03
2018-12-18T00:22:15.208Z,45.27
2018-12-18T00:24:43.381Z,43.03
2018-12-18T00:27:11.549Z,43.15
2018-12-18T00:29:39.761Z,44.00
2018-12-18T00:32:07.928Z,41.73
2018-12-18T00:34:36.105Z,46.13
2018-12-18T00:37:04.378Z,38.95
2018-12-18T00:39:32.565Z,40.35
2018-12-18T00:42:02.275Z,36.58
2018-12-18T00:44:30.440Z,37.08
2018-12-18T00:46:58.621Z,42.17
2018-12-18T00:49:26.792Z,37.78
2018-12-18T00:51:54.985Z,40.90
2018-12-18T00:54:23.290Z,46.28
2018-12-18T00:56:51.473Z,43.15
2018-12-18T00:59:19.644Z,43.83
2018-12-18T01:01:53.112Z,46.98
2018-12-18T01:04:21.276Z,40.63
2018-12-18T01:06:49.576Z,42.83
2018-12-18T01:09:17.728Z,40.60
2018-12-18T01:11:45.942Z,44.42
2018-12-18T01:14:14.153Z,34.50
2018-12-18T01:16:42.339Z,40.70
2018-12-18T01:19:10.588Z,42.00
2018-12-18T01:21:38.858Z,42.83
2018-12-18T01:24:07.032Z,39.48
2018-12-18T01:26:35.369Z,40.73
2018-12-18T01:29:03.613Z,40.23
2018-12-18T01:31:31.875Z,44.95
2018-12-18T01:34:00.060Z,38.90
2018-12-18T01:36:28.236Z,40.00
2018-12-18T01:38:56.457Z,38.13
2018-12-18T01:41:24.729Z,50.12
2018-12-18T01:43:52.977Z,40.28
2018-12-18T01:46:21.148Z,38.08
2018-12-18T01:48:49.324Z,42.23
2018-12-18T01:51:17.497Z,37.63
2018-12-18T01:53:45.654Z,42.15
2018-12-18T01:56:13.993Z,40.45
2018-12-18T01:58:42.173Z,39.40
2018-12-18T02:01:10.348Z,36.88
2018-12-18T02:03:38.504Z,39.33
2018-12-18T02:06:06.673Z,46.15
2018-12-18T02:08:34.837Z,34.53
2018-12-18T02:11:03.008Z,36.83
2018-12-18T02:13:31.201Z,40.08
2018-12-18T02:15:59.384Z,34.25
2018-12-18T02:18:27.560Z,34.23
2018-12-18T02:20:55.808Z,37.38
2018-12-18T02:23:23.984Z,35.58
2018-12-18T02:25:52.155Z,33.70
2018-12-18T02:28:20.340Z,31.40
2018-12-18T02:30:48.523Z,38.15
2018-12-18T02:33:16.723Z,36.68
2018-12-18T02:35:44.984Z,39.15
2018-12-18T02:38:13.181Z,35.83
2018-12-18T02:40:41.347Z,37.58
2018-12-18T02:43:09.520Z,39.33
2018-12-18T02:45:37.671Z,35.17
2018-12-18T02:48:05.940Z,33.58
2018-12-18T02:50:34.099Z,38.42
2018-12-18T02:53:02.265Z,33.90
2018-12-18T02:55:30.573Z,36.90
2018-12-18T02:57:58.743Z,36.90
2018-12-18T03:00:26.911Z,32.60
2018-12-18T03:02:55.097Z,32.63
2018-12-18T03:05:23.332Z,38.70
2018-12-18T03:07:51.534Z,34.35
2018-12-18T03:10:19.854Z,31.33
2018-12-18T03:12:48.025Z,32.65
2018-12-18T03:15:16.207Z,25.75
2018-12-18T03:17:44.385Z,28.00
2018-12-18T03:20:12.641Z,27.67
2018-12-18T03:22:40.831Z,32.63
2018-12-18T03:25:09.007Z,35.03
2018-12-18T03:27:37.211Z,36.63
2018-12-18T03:30:05.836Z,29.42
2018-12-18T03:32:39.079Z,33.90
2018-12-18T03:35:07.433Z,27.40
2018-12-18T03:37:35.622Z,26.90
2018-12-18T03:40:05.730Z,27.82
2018-12-18T03:42:33.908Z,27.75
2018-12-18T03:45:02.083Z,30.43
2018-12-18T03:47:30.445Z,27.82
2018-12-18T03:49:58.623Z,25.35
2018-12-18T03:52:26.812Z,27.10
2018-12-18T03:54:54.994Z,33.80
2018-12-18T03:57:23.164Z,31.62
2018-12-18T03:59:51.319Z,25.17
2018-12-18T04:02:19.575Z,33.45
2018-12-18T04:04:47.741Z,25.27
2018-12-18T04:07:15.913Z,25.25
2018-12-18T04:09:44.197Z,28.40
2018-12-18T04:12:16.699Z,28.73
2018-12-18T04:14:44.875Z,22.52
2018-12-18T04:17:13.065Z,26.52
2018-12-18T04:19:41.257Z,22.62
2018-12-18T04:22:09.448Z,22.50
2018-12-18T04:24:37.717Z,24.98
2018-12-18T04:27:05.885Z,23.32
2018-12-18T04:29:34.047Z,24.25
2018-12-18T04:32:02.223Z,24.45
2018-12-18T04:34:30.599Z,26.87
2018-12-18T04:36:58.771Z,27.62
2018-12-18T04:39:26.953Z,27.02
2018-12-18T04:41:55.112Z,24.85
2018-12-18T04:44:23.283Z,26.07
2018-12-18T04:46:51.437Z,29.77
2018-12-18T04:49:19.704Z,30.82
2018-12-18T04:51:47.876Z,26.57
2018-12-18T04:54:16.148Z,29.32
2018-12-18T04:56:44.398Z,27.65
2018-12-18T04:59:12.589Z,29.27
2018-12-18T05:01:40.742Z,34.75
2018-12-18T05:04:08.916Z,34.58
2018-12-18T05:06:37.692Z,29.83
2018-12-18T05:09:08.665Z,30.72
2018-12-18T05:11:36.827Z,30.73
2018-12-18T05:14:05.175Z,24.80
2018-12-18T05:16:33.423Z,22.37
2018-12-18T05:19:01.581Z,27.17
2018-12-18T05:21:29.736Z,30.87
2018-12-18T05:23:57.964Z,21.60
2018-12-18T05:26:26.287Z,30.77
2018-12-18T05:28:54.457Z,29.80
2018-12-18T05:31:22.657Z,31.83
2018-12-18T05:33:50.819Z,42.03
2018-12-18T05:36:18.983Z,39.07
2018-12-18T05:38:47.143Z,28.23
2018-12-18T05:41:15.303Z,27.27
2018-12-18T05:43:43.473Z,42.37
2018-12-18T05:46:11.619Z,35.30
2018-12-18T05:48:39.875Z,42.13
2018-12-18T05:51:08.023Z,37.17
2018-12-18T05:53:36.189Z,73.40
2018-12-18T05:56:04.511Z,84.13
2018-12-18T05:58:32.678Z,60.70
2018-12-18T06:01:00.848Z,54.43
2018-12-18T06:03:29.080Z,105.80
2018-12-18T06:05:57.351Z,45.43
2018-12-18T06:08:25.514Z,91.77
2018-12-18T06:10:53.671Z,46.00
2018-12-18T06:13:21.844Z,170.13
2018-12-18T06:15:50.011Z,39.90
2018-12-18T06:18:18.180Z,52.10
2018-12-18T06:20:46.331Z,52.37
2018-12-18T06:23:14.491Z,78.93
2018-12-18T06:25:42.648Z,26.40
2018-12-18T06:28:10.819Z,57.77
2018-12-18T06:30:38.995Z,35.47
2018-12-18T06:33:07.177Z,31.53
2018-12-18T06:35:35.323Z,37.93
2018-12-18T06:38:03.512Z,53.93
2018-12-18T06:40:31.733Z,24.10
2018-12-18T06:42:59.904Z,44.30
2018-12-18T06:45:28.144Z,53.13
2018-12-18T06:47:56.399Z,48.43
2018-12-18T06:50:24.568Z,39.63
2018-12-18T06:52:52.752Z,123.93
2018-12-18T06:55:20.940Z,72.40
2018-12-18T06:57:49.087Z,110.27
2018-12-18T07:00:17.335Z,51.90
2018-12-18T07:02:45.585Z,28.10
2018-12-18T07:05:16.764Z,48.53
2018-12-18T07:07:43.943Z,25.80
2018-12-18T07:10:12.195Z,36.80
2018-12-18T07:12:40.355Z,35.43
2018-12-18T07:15:08.632Z,32.37
2018-12-18T07:17:36.795Z,29.50
2018-12-18T07:20:05.237Z,40.47
2018-12-18T07:22:33.776Z,33.13
2018-12-18T07:25:01.942Z,51.03
2018-12-18T07:27:30.097Z,50.40
2018-12-18T07:29:58.301Z,45.47
2018-12-18T07:32:26.471Z,48.73
2018-12-18T07:34:54.665Z,77.80
2018-12-18T07:37:22.841Z,56.87
2018-12-18T07:39:51.009Z,52.10
2018-12-18T07:42:19.202Z,28.10
2018-12-18T07:44:47.464Z,37.30
2018-12-18T07:47:15.632Z,23.17
2018-12-18T07:49:43.791Z,30.63
2018-12-18T07:52:11.958Z,21.17
2018-12-18T07:54:40.140Z,37.87
2018-12-18T07:57:08.324Z,22.73
2018-12-18T07:59:36.487Z,25.77
2018-12-18T08:02:04.835Z,20.87
2018-12-18T08:04:33.003Z,19.90
2018-12-18T08:07:01.182Z,19.33
2018-12-18T08:09:29.495Z,20.13
2018-12-18T08:11:57.664Z,18.70
2018-12-18T08:14:25.844Z,21.27
2018-12-18T08:16:54.015Z,15.30
2018-12-18T08:19:22.200Z,39.30
2018-12-18T08:21:50.458Z,24.77
2018-12-18T08:24:18.676Z,29.97
2018-12-18T08:26:46.859Z,28.73
2018-12-18T08:29:15.032Z,29.87
2018-12-18T08:31:43.280Z,29.43
2018-12-18T08:34:11.453Z,31.70
2018-12-18T08:36:39.638Z,30.60
2018-12-18T08:39:09.368Z,34.83
2018-12-18T08:41:37.541Z,35.87
2018-12-18T08:44:05.804Z,32.53
2018-12-18T08:46:33.973Z,31.30
2018-12-18T08:49:02.141Z,36.13
2018-12-18T08:51:30.399Z,35.20
2018-12-18T08:53:58.592Z,29.40
2018-12-18T08:56:26.767Z,30.27
2018-12-18T08:58:54.942Z,30.50
2018-12-18T09:01:23.120Z,55.83
2018-12-18T09:03:51.353Z,41.80
2018-12-18T09:06:19.663Z,32.77
2018-12-18T09:08:48.828Z,35.43
2018-12-18T09:11:17.045Z,33.17
2018-12-18T09:13:45.283Z,26.63
2018-12-18T09:16:18.873Z,33.33
2018-12-18T09:18:47.067Z,26.60
2018-12-18T09:21:15.307Z,20.60
2018-12-18T09:23:43.483Z,24.53
2018-12-18T09:26:11.655Z,30.67
2018-12-18T09:28:39.912Z,21.10
2018-12-18T09:31:08.063Z,16.40
2018-12-18T09:33:36.227Z,18.70
2018-12-18T09:36:04.644Z,21.63
2018-12-18T09:38:38.239Z,21.07
2018-12-18T09:41:11.971Z,26.13
2018-12-18T09:43:45.523Z,21.33
2018-12-18T09:46:13.686Z,20.83
2018-12-18T09:48:41.852Z,22.50
2018-12-18T09:51:10.031Z,25.37
2018-12-18T09:53:38.216Z,26.83
2018-12-18T09:56:06.475Z,14.97
2018-12-18T09:58:34.853Z,14.60
2018-12-18T10:01:03.040Z,9.43
2018-12-18T10:03:33.609Z,8.43
2018-12-18T10:06:01.428Z,9.73
2018-12-18T10:08:29.664Z,8.17
2018-12-18T10:10:57.831Z,12.07
2018-12-18T10:13:26.170Z,10.87
2018-12-18T10:15:54.335Z,11.80
2018-12-18T10:18:22.511Z,10.13
2018-12-18T10:20:50.672Z,7.43
2018-12-18T10:23:18.844Z,11.30
2018-12-18T10:25:47.012Z,8.50
2018-12-18T10:28:15.176Z,9.73
2018-12-18T10:30:43.339Z,7.40
2018-12-18T10:33:11.536Z,6.93
2018-12-18T10:35:39.745Z,6.70
2018-12-18T10:38:08.013Z,6.40
2018-12-18T10:40:36.297Z,7.33
2018-12-18T10:43:04.562Z,7.37
2018-12-18T10:45:33.915Z,10.78
2018-12-18T10:48:02.084Z,7.50
2018-12-18T10:50:30.268Z,10.03
2018-12-18T10:52:58.451Z,5.62
2018-12-18T10:55:26.739Z,4.65
2018-12-18T10:57:54.955Z,6.15
2018-12-18T11:00:28.589Z,4.67
2018-12-18T11:02:56.782Z,4.10
2018-12-18T11:05:25.035Z,6.40
2018-12-18T11:07:53.195Z,4.47
2018-12-18T11:10:21.368Z,5.28
2018-12-18T11:12:55.019Z,6.03
2018-12-18T11:15:23.335Z,5.50
2018-12-18T11:17:51.503Z,5.50
2018-12-18T11:20:19.667Z,6.35
2018-12-18T11:22:47.836Z,7.42
2018-12-18T11:25:16.024Z,8.50
2018-12-18T11:27:44.201Z,10.20
2018-12-18T11:30:12.355Z,8.00
2018-12-18T11:32:40.527Z,10.70
2018-12-18T11:35:08.788Z,9.07
2018-12-18T11:37:37.046Z,9.83
2018-12-18T11:40:05.799Z,10.00
2018-12-18T11:42:33.978Z,9.40
2018-12-18T11:45:02.229Z,10.82
2018-12-18T11:47:30.413Z,9.73
2018-12-18T11:49:58.584Z,10.17
2018-12-18T11:52:26.768Z,8.30
2018-12-18T11:54:55.028Z,7.90
2018-12-18T11:57:23.204Z,7.78
2018-12-18T11:59:51.371Z,9.48
2018-12-18T12:02:19.535Z,6.50
2018-12-18T12:04:47.700Z,6.27
2018-12-18T12:07:15.880Z,11.43
2018-12-18T12:09:44.039Z,5.50
2018-12-18T12:12:12.260Z,8.43
2018-12-18T12:14:41.099Z,5.07
2018-12-18T12:17:09.260Z,7.93
2018-12-18T12:19:37.428Z,8.33
2018-12-18T12:22:05.597Z,6.30
2018-12-18T12:24:33.748Z,5.60
2018-12-18T12:27:07.399Z,15.27
2018-12-18T12:29:35.568Z,6.43
2018-12-18T12:32:03.908Z,5.33
2018-12-18T12:34:32.069Z,4.57
2018-12-18T12:37:00.271Z,9.83
2018-12-18T12:39:28.429Z,5.60
2018-12-18T12:41:56.604Z,8.17
2018-12-18T12:44:24.787Z,3.63
2018-12-18T12:46:52.953Z,5.63
2018-12-18T12:49:25.365Z,8.00
2018-12-18T12:51:53.568Z,4.00
2018-12-18T12:54:21.751Z,4.63
2018-12-18T12:56:49.957Z,2.90
2018-12-18T12:59:18.117Z,6.00
2018-12-18T13:01:46.280Z,4.70
2018-12-18T13:04:14.504Z,4.43
2018-12-18T13:06:42.770Z,3.27
2018-12-18T13:09:11.015Z,3.50
2018-12-18T13:11:39.266Z,13.37
2018-12-18T13:14:07.444Z,3.73
2018-12-18T13:16:35.603Z,6.67
2018-12-18T13:19:03.957Z,2.07
2018-12-18T13:21:32.264Z,8.47
2018-12-18T13:24:00.516Z,5.00
2018-12-18T13:26:28.671Z,3.23
2018-12-18T13:28:56.829Z,2.70
2018-12-18T13:31:25.072Z,3.63
2018-12-18T13:33:53.310Z,2.83
2018-12-18T13:36:21.490Z,4.37
2018-12-18T13:38:49.737Z,2.53
2018-12-18T13:41:17.896Z,3.30
2018-12-18T13:43:46.073Z,7.67
2018-12-18T13:46:15.191Z,2.97
2018-12-18T13:48:43.596Z,3.20
2018-12-18T13:51:11.830Z,2.80
2018-12-18T14:23:09.848Z,4.87
2018-12-18T14:25:38.036Z,5.30
2018-12-18T14:28:06.300Z,4.70
2018-12-18T14:30:34.474Z,5.23
2018-12-18T14:33:02.679Z,4.97
2018-12-18T14:35:30.827Z,4.50
2018-12-18T14:37:58.992Z,6.30
2018-12-18T14:40:27.171Z,6.03
2018-12-18T14:42:55.340Z,10.20
2018-12-18T14:45:23.592Z,5.67
2018-12-18T14:47:51.767Z,4.87
2018-12-18T14:50:19.928Z,5.30
2018-12-18T14:52:48.091Z,6.57
2018-12-18T14:55:16.247Z,7.50
2018-12-18T14:57:44.419Z,6.07
2018-12-18T15:00:12.657Z,6.80
2018-12-18T15:02:40.836Z,6.20
2018-12-18T15:05:09.083Z,5.30
2018-12-18T15:07:37.247Z,5.33
2018-12-18T15:10:07.164Z,5.90
2018-12-18T15:12:37.312Z,5.57
2018-12-18T15:15:05.865Z,6.10
2018-12-18T15:17:34.101Z,10.63
2018-12-18T15:20:02.235Z,6.00
2018-12-18T15:22:30.452Z,6.40
2018-12-18T15:24:58.616Z,6.93
2018-12-18T15:27:26.767Z,5.80
2018-12-18T15:29:54.932Z,6.43
2018-12-18T15:32:23.327Z,11.70
2018-12-18T15:34:51.504Z,9.60
2018-12-18T15:37:19.658Z,8.97
2018-12-18T15:39:47.884Z,23.43
2018-12-18T15:42:16.048Z,9.40
2018-12-18T15:44:44.211Z,9.47
2018-12-18T15:47:12.375Z,12.50
2018-12-18T15:49:40.571Z,8.10
2018-12-18T15:52:08.711Z,9.08
2018-12-18T15:54:36.876Z,6.93
2018-12-18T15:57:05.036Z,11.90
2018-12-18T15:59:33.195Z,9.53
2018-12-18T16:02:01.364Z,11.97
2018-12-18T16:04:29.624Z,13.50
2018-12-18T16:06:57.780Z,11.70
2018-12-18T16:09:25.964Z,14.30
2018-12-18T16:11:55.097Z,17.27
2018-12-18T16:14:23.496Z,14.30
2018-12-18T16:16:51.659Z,18.37
2018-12-18T16:19:20.104Z,12.00
2018-12-18T16:21:48.444Z,19.40
2018-12-18T16:24:16.612Z,16.47
2018-12-18T16:26:44.771Z,16.83
2018-12-18T16:29:12.943Z,19.07
2018-12-18T16:31:41.108Z,19.93
2018-12-18T16:34:09.284Z,18.67
2018-12-18T16:36:37.476Z,19.20
2018-12-18T16:39:07.355Z,21.67
2018-12-18T16:41:35.524Z,17.37
2018-12-18T16:44:03.783Z,17.23
2018-12-18T16:46:31.957Z,16.97
2018-12-18T16:49:00.119Z,23.53
2018-12-18T16:51:28.291Z,18.27
2018-12-18T16:53:56.460Z,19.17
2018-12-18T16:56:24.620Z,19.20
2018-12-18T16:58:52.792Z,22.47
2018-12-18T17:01:20.958Z,21.93
2018-12-18T17:03:49.115Z,21.93
2018-12-18T17:06:17.276Z,30.33
2018-12-18T17:08:45.445Z,36.50
2018-12-18T17:11:13.684Z,30.90
2018-12-18T17:13:41.851Z,36.50
2018-12-18T17:16:10.020Z,27.07
2018-12-18T17:18:38.189Z,21.23
2018-12-18T17:21:06.403Z,24.93
2018-12-18T17:23:34.624Z,30.03
2018-12-18T17:26:02.783Z,18.33
2018-12-18T17:28:30.955Z,22.00
2018-12-18T17:30:59.115Z,16.57
2018-12-18T17:33:27.272Z,17.57
2018-12-18T17:35:55.712Z,16.73
2018-12-18T17:38:23.875Z,15.40
2018-12-18T17:40:52.244Z,16.90
2018-12-18T17:43:20.975Z,18.70
2018-12-18T17:45:49.152Z,19.87
2018-12-18T17:48:17.325Z,15.10
2018-12-18T17:50:45.501Z,17.80
2018-12-18T17:53:13.663Z,19.50
2018-12-18T17:55:41.881Z,22.60
2018-12-18T17:58:10.057Z,16.30
2018-12-18T18:00:38.312Z,26.27
2018-12-18T18:03:06.476Z,20.10
2018-12-18T18:05:34.661Z,17.97
2018-12-18T18:08:02.918Z,22.60
2018-12-18T18:10:31.085Z,23.27
2018-12-18T18:12:59.258Z,27.10
2018-12-18T18:15:27.444Z,30.80
2018-12-18T18:17:55.616Z,24.50
2018-12-18T18:20:23.955Z,23.37
2018-12-18T18:22:52.238Z,33.23
2018-12-18T18:25:20.540Z,38.73
2018-12-18T18:27:48.706Z,34.77
2018-12-18T18:30:16.964Z,35.67
2018-12-18T18:32:45.155Z,43.00
2018-12-18T18:35:13.332Z,42.90
2018-12-18T18:37:41.489Z,41.13
2018-12-18T18:40:09.740Z,41.40
2018-12-18T18:42:37.899Z,37.37
2018-12-18T18:45:06.312Z,43.20
2018-12-18T18:47:34.485Z,39.93
2018-12-18T18:50:02.734Z,36.83
2018-12-18T18:52:30.903Z,34.80
2018-12-18T18:54:59.067Z,39.40
2018-12-18T18:57:27.230Z,36.80
2018-12-18T18:59:55.407Z,35.40
2018-12-18T19:02:23.662Z,32.83
2018-12-18T19:04:51.832Z,37.73
2018-12-18T19:07:20.083Z,37.30
2018-12-18T19:09:48.256Z,38.33
2018-12-18T19:12:16.434Z,42.07
2018-12-18T19:14:44.616Z,36.50
2018-12-18T19:17:12.863Z,38.37
2018-12-18T19:19:41.203Z,32.27
2018-12-18T19:22:09.364Z,31.53
2018-12-18T19:24:37.531Z,41.20
2018-12-18T19:27:05.696Z,30.80
2018-12-18T19:29:33.964Z,31.83
2018-12-18T19:32:02.124Z,31.97
2018-12-18T19:34:30.295Z,32.97
2018-12-18T19:36:58.635Z,37.63
2018-12-18T19:39:27.200Z,36.37
2018-12-18T19:41:55.374Z,39.67
2018-12-18T19:44:23.548Z,36.03
2018-12-18T19:46:51.712Z,32.70
2018-12-18T19:49:19.901Z,28.23
2018-12-18T19:51:48.061Z,30.73
2018-12-18T19:54:16.220Z,38.00
2018-12-18T19:56:44.387Z,35.20
2018-12-18T19:59:12.576Z,33.47
2018-12-18T20:01:40.775Z,35.30
2018-12-18T20:04:08.935Z,36.50
2018-12-18T20:06:37.116Z,34.80
2018-12-18T20:09:07.584Z,36.40
2018-12-18T20:11:35.776Z,35.40
2018-12-18T20:14:04.122Z,44.17
2018-12-18T20:16:32.283Z,39.60
2018-12-18T20:19:00.447Z,30.87
2018-12-18T20:21:28.715Z,42.73
2018-12-18T20:23:56.875Z,36.33
2018-12-18T20:26:25.073Z,37.00
2018-12-18T20:28:53.232Z,35.63
2018-12-18T20:31:21.496Z,46.20
2018-12-18T20:33:49.667Z,33.70
2018-12-18T20:36:18.157Z,36.53
2018-12-18T20:38:46.315Z,40.33
2018-12-18T20:41:14.527Z,31.93
2018-12-18T20:43:42.706Z,30.37
2018-12-18T20:46:10.883Z,40.38
2018-12-18T20:48:39.053Z,38.38
2018-12-18T20:51:07.318Z,34.85
2018-12-18T20:53:35.501Z,36.25
2018-12-18T20:56:03.856Z,36.85
2018-12-18T20:58:32.055Z,35.60
2018-12-18T21:01:00.260Z,35.33
2018-12-18T21:03:28.443Z,34.13
2018-12-18T21:05:56.703Z,32.93
2018-12-18T21:08:24.977Z,35.15
2018-12-18T21:10:53.377Z,34.43
2018-12-18T21:13:28.739Z,33.95
2018-12-18T21:15:57.340Z,34.95
2018-12-18T21:18:25.639Z,33.88
2018-12-18T21:20:54.043Z,34.95
2018-12-18T21:23:22.318Z,38.67
2018-12-18T21:25:50.694Z,38.27
2018-12-18T21:28:19.047Z,36.63
2018-12-18T21:30:47.407Z,31.37
2018-12-18T21:33:15.659Z,32.95
2018-12-18T21:35:43.944Z,32.33
2018-12-18T21:38:12.208Z,29.27
2018-12-18T21:40:40.600Z,28.40
2018-12-18T21:43:08.884Z,30.60
2018-12-18T21:45:37.220Z,29.25
2018-12-18T21:48:05.549Z,27.80
2018-12-18T21:50:33.844Z,34.40
2018-12-18T21:53:02.149Z,31.27
2018-12-18T21:55:30.440Z,32.28
2018-12-18T21:57:58.708Z,34.05
2018-12-18T22:00:26.981Z,33.43
2018-12-18T22:02:55.255Z,34.58
2018-12-18T22:05:23.532Z,31.10
2018-12-18T22:07:51.827Z,35.33
2018-12-18T22:10:20.141Z,35.85
2018-12-18T22:12:48.421Z,36.53
2018-12-18T22:15:16.703Z,32.20
2018-12-18T22:17:45.019Z,35.30
2018-12-18T22:20:13.344Z,33.80
2018-12-18T22:22:41.628Z,33.25
2018-12-18T22:25:09.832Z,34.08
2018-12-18T22:27:38.008Z,33.40
2018-12-18T22:30:08.119Z,32.45
2018-12-18T22:32:36.283Z,33.30
2018-12-18T22:35:04.632Z,32.00
2018-12-18T22:37:32.820Z,31.30
2018-12-18T22:40:01.003Z,33.23
2018-12-18T22:42:29.191Z,32.67
2018-12-18T22:44:57.366Z,29.18
2018-12-18T22:47:25.556Z,32.80
2018-12-18T22:49:53.712Z,31.97
2018-12-18T22:52:21.888Z,29.15
2018-12-18T22:54:50.071Z,35.03
2018-12-18T22:57:18.251Z,32.37
2018-12-18T22:59:46.433Z,33.75
2018-12-18T23:02:15.843Z,31.75
2018-12-18T23:04:44.969Z,34.98
2018-12-18T23:07:13.288Z,31.93
2018-12-18T23:09:41.479Z,30.60
2018-12-18T23:12:09.738Z,34.60
2018-12-18T23:14:37.916Z,42.00
2018-12-18T23:17:06.173Z,36.27
2018-12-18T23:19:34.420Z,35.50
2018-12-18T23:22:02.625Z,33.13
2018-12-18T23:24:30.811Z,33.10
2018-12-18T23:26:59.000Z,39.55
2018-12-18T23:29:27.179Z,39.92
2018-12-18T23:31:55.411Z,33.37
2018-12-18T23:34:23.576Z,30.77
2018-12-18T23:36:51.769Z,35.13
2018-12-18T23:39:19.931Z,31.23
2018-12-18T23:41:48.184Z,32.20
2018-12-18T23:44:16.335Z,30.83
2018-12-18T23:46:44.540Z,31.77
2018-12-18T23:49:12.779Z,32.60
2018-12-18T23:51:40.950Z,28.80
2018-12-18T23:54:09.115Z,31.40
2018-12-18T23:56:37.280Z,27.17
2018-12-18T23:59:05.455Z,33.93
